sensor_id;sensor_type;location;lat;lon;timestamp;P1;durP1;ratioP1;P2;durP2;ratioP2
21099;SDS011;10708;50.824;4.408;2023-04-03T00:02:09;448.77;;;414.88;;
21099;SDS011;10708;50.824;4.408;2023-04-03T00:07:12;329.15;;;306.25;;
21099;SDS011;10708;50.824;4.408;2023-04-03T00:12:16;273.88;;;255.50;;
21099;SDS011;10708;50.824;4.408;2023-04-03T00:17:19;293.63;;;274.35;;
21099;SDS011;10708;50.824;4.408;2023-04-03T00:22:21;195.27;;;182.53;;
21099;SDS011;10708;50.824;4.408;2023-04-03T00:27:25;349.35;;;328.33;;
21099;SDS011;10708;50.824;4.408;2023-04-03T00:32:28;412.95;;;388.25;;
21099;SDS011;10708;50.824;4.408;2023-04-03T00:37:30;370.02;;;347.70;;
21099;SDS011;10708;50.824;4.408;2023-04-03T00:42:35;421.40;;;396.23;;
21099;SDS011;10708;50.824;4.408;2023-04-03T00:47:38;398.60;;;375.20;;
21099;SDS011;10708;50.824;4.408;2023-04-03T00:52:42;362.35;;;341.33;;
21099;SDS011;10708;50.824;4.408;2023-04-03T00:57:52;376.17;;;354.27;;
21099;SDS011;10708;50.824;4.408;2023-04-03T01:02:56;342.52;;;323.23;;
21099;SDS011;10708;50.824;4.408;2023-04-03T01:07:59;351.63;;;331.30;;
21099;SDS011;10708;50.824;4.408;2023-04-03T01:13:07;332.77;;;313.42;;
21099;SDS011;10708;50.824;4.408;2023-04-03T01:18:20;357.88;;;337.27;;
21099;SDS011;10708;50.824;4.408;2023-04-03T01:23:28;345.73;;;325.90;;
21099;SDS011;10708;50.824;4.408;2023-04-03T01:28:39;359.10;;;338.23;;
21099;SDS011;10708;50.824;4.408;2023-04-03T01:33:43;356.03;;;335.20;;
21099;SDS011;10708;50.824;4.408;2023-04-03T01:38:46;358.17;;;337.58;;
21099;SDS011;10708;50.824;4.408;2023-04-03T01:43:48;347.23;;;326.60;;
21099;SDS011;10708;50.824;4.408;2023-04-03T01:48:53;283.90;;;266.90;;
21099;SDS011;10708;50.824;4.408;2023-04-03T01:53:55;271.27;;;254.67;;
21099;SDS011;10708;50.824;4.408;2023-04-03T01:58:58;234.00;;;219.13;;
21099;SDS011;10708;50.824;4.408;2023-04-03T02:04:02;256.05;;;240.70;;
21099;SDS011;10708;50.824;4.408;2023-04-03T02:09:04;213.32;;;200.07;;
21099;SDS011;10708;50.824;4.408;2023-04-03T02:14:07;259.50;;;243.98;;
21099;SDS011;10708;50.824;4.408;2023-04-03T02:19:11;219.23;;;205.50;;
21099;SDS011;10708;50.824;4.408;2023-04-03T02:24:13;222.38;;;208.23;;
21099;SDS011;10708;50.824;4.408;2023-04-03T02:29:15;200.30;;;187.70;;
21099;SDS011;10708;50.824;4.408;2023-04-03T02:34:21;220.65;;;206.93;;
21099;SDS011;10708;50.824;4.408;2023-04-03T02:39:25;216.05;;;202.13;;
21099;SDS011;10708;50.824;4.408;2023-04-03T02:44:27;210.82;;;197.40;;
21099;SDS011;10708;50.824;4.408;2023-04-03T02:49:31;276.80;;;260.60;;
21099;SDS011;10708;50.824;4.408;2023-04-03T02:54:33;214.03;;;201.03;;
21099;SDS011;10708;50.824;4.408;2023-04-03T02:59:36;278.45;;;262.58;;
21099;SDS011;10708;50.824;4.408;2023-04-03T03:04:42;165.83;;;155.43;;
21099;SDS011;10708;50.824;4.408;2023-04-03T03:09:44;483.20;;;452.07;;
21099;SDS011;10708;50.824;4.408;2023-04-03T03:14:46;243.65;;;229.35;;
21099;SDS011;10708;50.824;4.408;2023-04-03T03:19:50;748.92;;;693.95;;
21099;SDS011;10708;50.824;4.408;2023-04-03T03:24:53;889.53;;;820.40;;
21099;SDS011;10708;50.824;4.408;2023-04-03T03:29:55;97.37;;;91.40;;
21099;SDS011;10708;50.824;4.408;2023-04-03T03:34:59;108.95;;;102.53;;
21099;SDS011;10708;50.824;4.408;2023-04-03T03:40:01;99.18;;;93.40;;
21099;SDS011;10708;50.824;4.408;2023-04-03T03:45:04;104.07;;;97.88;;
21099;SDS011;10708;50.824;4.408;2023-04-03T03:50:09;85.70;;;80.50;;
21099;SDS011;10708;50.824;4.408;2023-04-03T03:55:12;86.97;;;81.67;;
21099;SDS011;10708;50.824;4.408;2023-04-03T04:00:14;95.40;;;89.63;;
21099;SDS011;10708;50.824;4.408;2023-04-03T04:05:18;119.60;;;112.60;;
21099;SDS011;10708;50.824;4.408;2023-04-03T04:10:21;700.03;;;649.28;;
21099;SDS011;10708;50.824;4.408;2023-04-03T04:15:23;450.58;;;421.63;;
21099;SDS011;10708;50.824;4.408;2023-04-03T04:20:27;212.25;;;198.57;;
21099;SDS011;10708;50.824;4.408;2023-04-03T04:25:30;469.05;;;438.67;;
21099;SDS011;10708;50.824;4.408;2023-04-03T04:30:33;565.60;;;526.92;;
21099;SDS011;10708;50.824;4.408;2023-04-03T04:35:37;725.00;;;671.72;;
21099;SDS011;10708;50.824;4.408;2023-04-03T04:40:39;669.67;;;622.40;;
21099;SDS011;10708;50.824;4.408;2023-04-03T04:45:42;675.08;;;626.70;;
21099;SDS011;10708;50.824;4.408;2023-04-03T04:50:45;708.30;;;657.27;;
21099;SDS011;10708;50.824;4.408;2023-04-03T04:55:48;660.97;;;614.92;;
21099;SDS011;10708;50.824;4.408;2023-04-03T05:00:50;676.10;;;628.70;;
21099;SDS011;10708;50.824;4.408;2023-04-03T05:06:02;628.72;;;586.80;;
21099;SDS011;10708;50.824;4.408;2023-04-03T05:11:05;637.03;;;594.05;;
21099;SDS011;10708;50.824;4.408;2023-04-03T05:16:07;492.57;;;458.60;;
21099;SDS011;10708;50.824;4.408;2023-04-03T05:21:11;948.33;;;867.93;;
21099;SDS011;10708;50.824;4.408;2023-04-03T05:26:14;923.35;;;845.33;;
21099;SDS011;10708;50.824;4.408;2023-04-03T05:31:16;1003.38;;;917.28;;
21099;SDS011;10708;50.824;4.408;2023-04-03T05:36:20;982.50;;;899.60;;
21099;SDS011;10708;50.824;4.408;2023-04-03T05:41:23;855.43;;;785.67;;
21099;SDS011;10708;50.824;4.408;2023-04-03T05:46:25;743.22;;;682.88;;
21099;SDS011;10708;50.824;4.408;2023-04-03T05:51:30;418.00;;;387.70;;
21099;SDS011;10708;50.824;4.408;2023-04-03T05:56:36;207.13;;;191.98;;
21099;SDS011;10708;50.824;4.408;2023-04-03T06:01:39;376.30;;;350.17;;
21099;SDS011;10708;50.824;4.408;2023-04-03T06:06:46;193.17;;;179.53;;
21099;SDS011;10708;50.824;4.408;2023-04-03T06:11:52;148.17;;;137.17;;
21099;SDS011;10708;50.824;4.408;2023-04-03T06:16:54;128.03;;;119.17;;
21099;SDS011;10708;50.824;4.408;2023-04-03T06:21:58;184.63;;;171.70;;
21099;SDS011;10708;50.824;4.408;2023-04-03T06:27:01;547.93;;;511.53;;
21099;SDS011;10708;50.824;4.408;2023-04-03T06:32:03;661.60;;;614.35;;
21099;SDS011;10708;50.824;4.408;2023-04-03T06:37:07;310.73;;;287.60;;
21099;SDS011;10708;50.824;4.408;2023-04-03T06:42:12;402.83;;;370.33;;
21099;SDS011;10708;50.824;4.408;2023-04-03T06:47:16;380.95;;;356.08;;
21099;SDS011;10708;50.824;4.408;2023-04-03T06:52:20;479.52;;;450.67;;
21099;SDS011;10708;50.824;4.408;2023-04-03T06:57:23;254.40;;;239.40;;
21099;SDS011;10708;50.824;4.408;2023-04-03T07:02:26;136.65;;;128.18;;
21099;SDS011;10708;50.824;4.408;2023-04-03T07:07:30;222.45;;;209.73;;
21099;SDS011;10708;50.824;4.408;2023-04-03T07:12:34;386.85;;;364.50;;
21099;SDS011;10708;50.824;4.408;2023-04-03T07:17:37;445.73;;;418.90;;
21099;SDS011;10708;50.824;4.408;2023-04-03T07:22:40;500.58;;;469.75;;
21099;SDS011;10708;50.824;4.408;2023-04-03T07:27:43;450.13;;;422.83;;
21099;SDS011;10708;50.824;4.408;2023-04-03T07:32:45;444.73;;;417.65;;
21099;SDS011;10708;50.824;4.408;2023-04-03T07:37:49;658.00;;;613.15;;
21099;SDS011;10708;50.824;4.408;2023-04-03T07:42:52;85.60;;;80.32;;
21099;SDS011;10708;50.824;4.408;2023-04-03T07:47:55;202.53;;;190.43;;
21099;SDS011;10708;50.824;4.408;2023-04-03T07:52:59;844.13;;;780.97;;
21099;SDS011;10708;50.824;4.408;2023-04-03T07:58:02;1038.30;;;948.83;;
21099;SDS011;10708;50.824;4.408;2023-04-03T08:03:05;1044.43;;;954.35;;
21099;SDS011;10708;50.824;4.408;2023-04-03T08:08:10;978.70;;;897.50;;
21099;SDS011;10708;50.824;4.408;2023-04-03T08:13:13;990.05;;;908.28;;
21099;SDS011;10708;50.824;4.408;2023-04-03T08:18:16;828.42;;;764.83;;
21099;SDS011;10708;50.824;4.408;2023-04-03T08:23:23;364.08;;;342.73;;
21099;SDS011;10708;50.824;4.408;2023-04-03T08:28:25;505.00;;;471.30;;
21099;SDS011;10708;50.824;4.408;2023-04-03T08:33:28;248.88;;;235.63;;
21099;SDS011;10708;50.824;4.408;2023-04-03T08:38:32;91.25;;;86.22;;
21099;SDS011;10708;50.824;4.408;2023-04-03T08:43:39;224.53;;;212.47;;
21099;SDS011;10708;50.824;4.408;2023-04-03T08:48:54;474.38;;;445.90;;
21099;SDS011;10708;50.824;4.408;2023-04-03T08:54:03;446.10;;;420.27;;
21099;SDS011;10708;50.824;4.408;2023-04-03T08:59:10;211.93;;;199.47;;
21099;SDS011;10708;50.824;4.408;2023-04-03T09:04:19;285.50;;;268.90;;
21099;SDS011;10708;50.824;4.408;2023-04-03T09:09:27;354.48;;;334.45;;
21099;SDS011;10708;50.824;4.408;2023-04-03T09:14:36;429.70;;;404.85;;
21099;SDS011;10708;50.824;4.408;2023-04-03T09:19:43;530.72;;;498.73;;
21099;SDS011;10708;50.824;4.408;2023-04-03T09:24:55;511.90;;;480.75;;
21099;SDS011;10708;50.824;4.408;2023-04-03T09:30:01;578.60;;;542.73;;
21099;SDS011;10708;50.824;4.408;2023-04-03T09:35:06;609.33;;;570.88;;
21099;SDS011;10708;50.824;4.408;2023-04-03T09:40:35;39.63;;;37.13;;
21099;SDS011;10708;50.824;4.408;2023-04-03T09:45:39;63.45;;;59.78;;
21099;SDS011;10708;50.824;4.408;2023-04-03T09:50:52;93.22;;;87.82;;
21099;SDS011;10708;50.824;4.408;2023-04-03T09:56:02;424.35;;;399.60;;
21099;SDS011;10708;50.824;4.408;2023-04-03T10:01:06;157.90;;;148.47;;
21099;SDS011;10708;50.824;4.408;2023-04-03T10:06:22;182.57;;;172.65;;
21099;SDS011;10708;50.824;4.408;2023-04-03T10:11:26;108.25;;;102.22;;
21099;SDS011;10708;50.824;4.408;2023-04-03T10:16:32;61.35;;;57.83;;
21099;SDS011;10708;50.824;4.408;2023-04-03T10:21:40;87.97;;;83.22;;
21099;SDS011;10708;50.824;4.408;2023-04-03T10:26:52;47.75;;;44.85;;
21099;SDS011;10708;50.824;4.408;2023-04-03T10:32:01;47.08;;;44.45;;
21099;SDS011;10708;50.824;4.408;2023-04-03T10:37:12;35.65;;;33.55;;
21099;SDS011;10708;50.824;4.408;2023-04-03T10:42:25;34.15;;;31.90;;
21099;SDS011;10708;50.824;4.408;2023-04-03T10:47:36;31.80;;;29.92;;
21099;SDS011;10708;50.824;4.408;2023-04-03T10:52:52;24.77;;;23.15;;
21099;SDS011;10708;50.824;4.408;2023-04-03T10:58:01;21.70;;;20.30;;
21099;SDS011;10708;50.824;4.408;2023-04-03T11:03:06;22.25;;;20.70;;
21099;SDS011;10708;50.824;4.408;2023-04-03T11:08:17;21.05;;;19.55;;
21099;SDS011;10708;50.824;4.408;2023-04-03T11:13:30;20.00;;;18.60;;
21099;SDS011;10708;50.824;4.408;2023-04-03T11:18:37;20.30;;;18.98;;
21099;SDS011;10708;50.824;4.408;2023-04-03T11:23:43;27.70;;;26.10;;
21099;SDS011;10708;50.824;4.408;2023-04-03T11:28:52;31.48;;;29.52;;
21099;SDS011;10708;50.824;4.408;2023-04-03T11:33:59;33.67;;;31.63;;
21099;SDS011;10708;50.824;4.408;2023-04-03T11:39:16;59.97;;;56.53;;
21099;SDS011;10708;50.824;4.408;2023-04-03T11:44:31;33.20;;;31.30;;
21099;SDS011;10708;50.824;4.408;2023-04-03T11:55:00;34.67;;;32.67;;
21099;SDS011;10708;50.824;4.408;2023-04-03T12:05:40;19.98;;;18.75;;
21099;SDS011;10708;50.824;4.408;2023-04-03T12:10:43;18.10;;;16.95;;
21099;SDS011;10708;50.824;4.408;2023-04-03T12:16:19;17.30;;;16.15;;
21099;SDS011;10708;50.824;4.408;2023-04-03T12:21:24;20.50;;;19.30;;
21099;SDS011;10708;50.824;4.408;2023-04-03T12:27:16;29.63;;;27.90;;
21099;SDS011;10708;50.824;4.408;2023-04-03T12:32:43;25.75;;;24.25;;
21099;SDS011;10708;50.824;4.408;2023-04-03T12:38:10;25.70;;;24.30;;
21099;SDS011;10708;50.824;4.408;2023-04-03T12:48:53;21.60;;;20.20;;
21099;SDS011;10708;50.824;4.408;2023-04-03T12:54:01;20.97;;;19.87;;
21099;SDS011;10708;50.824;4.408;2023-04-03T12:59:14;30.83;;;29.10;;
21099;SDS011;10708;50.824;4.408;2023-04-03T13:04:18;25.83;;;24.33;;
21099;SDS011;10708;50.824;4.408;2023-04-03T13:09:23;47.95;;;45.35;;
21099;SDS011;10708;50.824;4.408;2023-04-03T13:14:28;45.60;;;42.90;;
21099;SDS011;10708;50.824;4.408;2023-04-03T13:19:33;48.65;;;46.15;;
21099;SDS011;10708;50.824;4.408;2023-04-03T13:24:37;41.07;;;38.93;;
21099;SDS011;10708;50.824;4.408;2023-04-03T13:29:41;36.67;;;34.67;;
21099;SDS011;10708;50.824;4.408;2023-04-03T13:34:43;39.53;;;37.42;;
21099;SDS011;10708;50.824;4.408;2023-04-03T13:39:56;49.13;;;46.50;;
21099;SDS011;10708;50.824;4.408;2023-04-03T13:45:10;48.10;;;45.23;;
21099;SDS011;10708;50.824;4.408;2023-04-03T13:50:22;42.25;;;39.95;;
21099;SDS011;10708;50.824;4.408;2023-04-03T13:55:28;45.83;;;43.30;;
21099;SDS011;10708;50.824;4.408;2023-04-03T14:00:34;43.27;;;40.93;;
21099;SDS011;10708;50.824;4.408;2023-04-03T14:05:39;40.58;;;38.17;;
21099;SDS011;10708;50.824;4.408;2023-04-03T14:10:43;32.85;;;31.02;;
21099;SDS011;10708;50.824;4.408;2023-04-03T14:15:46;54.53;;;51.47;;
21099;SDS011;10708;50.824;4.408;2023-04-03T14:20:50;40.88;;;38.53;;
21099;SDS011;10708;50.824;4.408;2023-04-03T14:25:53;30.40;;;28.63;;
21099;SDS011;10708;50.824;4.408;2023-04-03T14:30:56;36.35;;;34.33;;
21099;SDS011;10708;50.824;4.408;2023-04-03T14:35:58;36.03;;;34.03;;
21099;SDS011;10708;50.824;4.408;2023-04-03T14:41:04;36.42;;;34.42;;
21099;SDS011;10708;50.824;4.408;2023-04-03T14:46:17;30.10;;;28.40;;
21099;SDS011;10708;50.824;4.408;2023-04-03T14:51:23;27.55;;;25.55;;
21099;SDS011;10708;50.824;4.408;2023-04-03T14:56:28;30.83;;;29.13;;
21099;SDS011;10708;50.824;4.408;2023-04-03T15:01:34;33.90;;;31.70;;
21099;SDS011;10708;50.824;4.408;2023-04-03T15:06:38;42.33;;;39.72;;
21099;SDS011;10708;50.824;4.408;2023-04-03T15:11:42;33.67;;;31.88;;
21099;SDS011;10708;50.824;4.408;2023-04-03T15:16:45;40.30;;;38.03;;
21099;SDS011;10708;50.824;4.408;2023-04-03T15:21:48;33.72;;;31.90;;
21099;SDS011;10708;50.824;4.408;2023-04-03T15:26:53;32.83;;;30.92;;
21099;SDS011;10708;50.824;4.408;2023-04-03T15:31:55;32.60;;;30.80;;
21099;SDS011;10708;50.824;4.408;2023-04-03T15:36:58;30.33;;;28.52;;
21099;SDS011;10708;50.824;4.408;2023-04-03T15:42:02;27.67;;;26.07;;
21099;SDS011;10708;50.824;4.408;2023-04-03T15:47:06;25.80;;;24.35;;
21099;SDS011;10708;50.824;4.408;2023-04-03T15:52:09;30.85;;;29.02;;
21099;SDS011;10708;50.824;4.408;2023-04-03T15:57:13;32.27;;;30.47;;
21099;SDS011;10708;50.824;4.408;2023-04-03T16:02:16;31.17;;;29.20;;
21099;SDS011;10708;50.824;4.408;2023-04-03T16:07:18;25.70;;;24.20;;
21099;SDS011;10708;50.824;4.408;2023-04-03T16:12:22;37.30;;;35.05;;
21099;SDS011;10708;50.824;4.408;2023-04-03T16:17:25;40.38;;;38.00;;
21099;SDS011;10708;50.824;4.408;2023-04-03T16:22:29;26.40;;;24.70;;
21099;SDS011;10708;50.824;4.408;2023-04-03T16:27:34;27.20;;;25.50;;
21099;SDS011;10708;50.824;4.408;2023-04-03T16:32:37;32.47;;;30.52;;
21099;SDS011;10708;50.824;4.408;2023-04-03T16:37:41;32.83;;;30.75;;
21099;SDS011;10708;50.824;4.408;2023-04-03T16:42:45;31.95;;;29.98;;
21099;SDS011;10708;50.824;4.408;2023-04-03T16:47:47;56.05;;;52.80;;
21099;SDS011;10708;50.824;4.408;2023-04-03T16:52:52;50.30;;;47.47;;
21099;SDS011;10708;50.824;4.408;2023-04-03T16:57:56;44.28;;;41.78;;
21099;SDS011;10708;50.824;4.408;2023-04-03T17:02:59;41.15;;;38.95;;
21099;SDS011;10708;50.824;4.408;2023-04-03T17:08:01;43.67;;;41.15;;
21099;SDS011;10708;50.824;4.408;2023-04-03T17:13:05;66.22;;;62.55;;
21099;SDS011;10708;50.824;4.408;2023-04-03T17:18:08;57.60;;;54.20;;
21099;SDS011;10708;50.824;4.408;2023-04-03T17:23:11;52.58;;;49.47;;
21099;SDS011;10708;50.824;4.408;2023-04-03T17:28:15;61.60;;;58.03;;
21099;SDS011;10708;50.824;4.408;2023-04-03T17:33:17;65.20;;;61.20;;
21099;SDS011;10708;50.824;4.408;2023-04-03T17:38:19;41.90;;;39.60;;
21099;SDS011;10708;50.824;4.408;2023-04-03T17:43:23;46.13;;;43.22;;
21099;SDS011;10708;50.824;4.408;2023-04-03T17:48:26;47.75;;;44.88;;
21099;SDS011;10708;50.824;4.408;2023-04-03T17:53:28;64.63;;;61.10;;
21099;SDS011;10708;50.824;4.408;2023-04-03T17:58:32;33.27;;;31.47;;
21099;SDS011;10708;50.824;4.408;2023-04-03T18:03:35;36.67;;;34.57;;
21099;SDS011;10708;50.824;4.408;2023-04-03T18:08:39;43.75;;;41.00;;
21099;SDS011;10708;50.824;4.408;2023-04-03T18:13:44;50.27;;;47.27;;
21099;SDS011;10708;50.824;4.408;2023-04-03T18:18:47;45.35;;;42.72;;
21099;SDS011;10708;50.824;4.408;2023-04-03T18:23:50;55.08;;;51.88;;
21099;SDS011;10708;50.824;4.408;2023-04-03T18:28:57;31.03;;;28.93;;
21099;SDS011;10708;50.824;4.408;2023-04-03T18:34:02;52.83;;;49.75;;
21099;SDS011;10708;50.824;4.408;2023-04-03T18:39:05;30.58;;;28.77;;
21099;SDS011;10708;50.824;4.408;2023-04-03T18:44:11;34.73;;;32.67;;
21099;SDS011;10708;50.824;4.408;2023-04-03T18:49:16;45.65;;;43.10;;
21099;SDS011;10708;50.824;4.408;2023-04-03T18:54:18;56.20;;;52.90;;
21099;SDS011;10708;50.824;4.408;2023-04-03T18:59:22;60.40;;;56.93;;
21099;SDS011;10708;50.824;4.408;2023-04-03T19:04:25;74.00;;;69.90;;
21099;SDS011;10708;50.824;4.408;2023-04-03T19:09:28;72.15;;;68.07;;
21099;SDS011;10708;50.824;4.408;2023-04-03T19:14:32;72.75;;;68.72;;
21099;SDS011;10708;50.824;4.408;2023-04-03T19:19:35;73.87;;;69.57;;
21099;SDS011;10708;50.824;4.408;2023-04-03T19:24:37;74.57;;;70.47;;
21099;SDS011;10708;50.824;4.408;2023-04-03T19:29:41;117.90;;;111.68;;
21099;SDS011;10708;50.824;4.408;2023-04-03T19:34:43;119.03;;;112.30;;
21099;SDS011;10708;50.824;4.408;2023-04-03T19:39:45;143.13;;;135.30;;
21099;SDS011;10708;50.824;4.408;2023-04-03T19:44:49;162.35;;;153.90;;
21099;SDS011;10708;50.824;4.408;2023-04-03T19:49:52;172.30;;;163.20;;
21099;SDS011;10708;50.824;4.408;2023-04-03T19:54:55;192.30;;;182.40;;
21099;SDS011;10708;50.824;4.408;2023-04-03T19:59:59;186.98;;;177.27;;
21099;SDS011;10708;50.824;4.408;2023-04-03T20:05:01;186.52;;;176.82;;
21099;SDS011;10708;50.824;4.408;2023-04-03T20:10:09;179.23;;;169.80;;
21099;SDS011;10708;50.824;4.408;2023-04-03T20:15:13;205.52;;;194.55;;
21099;SDS011;10708;50.824;4.408;2023-04-03T20:20:16;189.27;;;179.13;;
21099;SDS011;10708;50.824;4.408;2023-04-03T20:25:19;203.93;;;193.07;;
21099;SDS011;10708;50.824;4.408;2023-04-03T20:30:23;276.58;;;262.23;;
21099;SDS011;10708;50.824;4.408;2023-04-03T20:35:25;313.17;;;297.27;;
21099;SDS011;10708;50.824;4.408;2023-04-03T20:40:28;316.50;;;299.95;;
21099;SDS011;10708;50.824;4.408;2023-04-03T20:45:32;268.23;;;254.05;;
21099;SDS011;10708;50.824;4.408;2023-04-03T20:50:34;188.60;;;178.13;;
21099;SDS011;10708;50.824;4.408;2023-04-03T20:55:40;98.30;;;92.80;;
21099;SDS011;10708;50.824;4.408;2023-04-03T21:00:43;88.45;;;83.38;;
21099;SDS011;10708;50.824;4.408;2023-04-03T21:05:46;70.68;;;66.60;;
21099;SDS011;10708;50.824;4.408;2023-04-03T21:21:37;112.22;;;106.20;;
21099;SDS011;10708;50.824;4.408;2023-04-03T21:26:40;144.20;;;136.60;;
21099;SDS011;10708;50.824;4.408;2023-04-03T21:31:50;148.25;;;140.45;;
21099;SDS011;10708;50.824;4.408;2023-04-03T21:36:55;142.02;;;134.68;;
21099;SDS011;10708;50.824;4.408;2023-04-03T21:42:01;138.17;;;130.80;;
21099;SDS011;10708;50.824;4.408;2023-04-03T21:47:04;133.18;;;126.25;;
21099;SDS011;10708;50.824;4.408;2023-04-03T21:52:13;181.38;;;171.65;;
21099;SDS011;10708;50.824;4.408;2023-04-03T21:57:19;242.60;;;230.13;;
21099;SDS011;10708;50.824;4.408;2023-04-03T22:02:22;213.50;;;202.25;;
21099;SDS011;10708;50.824;4.408;2023-04-03T22:07:27;252.68;;;239.65;;
21099;SDS011;10708;50.824;4.408;2023-04-03T22:12:30;289.67;;;274.83;;
21099;SDS011;10708;50.824;4.408;2023-04-03T22:17:33;219.10;;;207.97;;
21099;SDS011;10708;50.824;4.408;2023-04-03T22:22:37;265.70;;;252.05;;
21099;SDS011;10708;50.824;4.408;2023-04-03T22:27:40;237.23;;;225.15;;
21099;SDS011;10708;50.824;4.408;2023-04-03T22:32:42;337.48;;;319.85;;
21099;SDS011;10708;50.824;4.408;2023-04-03T22:37:46;293.35;;;278.38;;
21099;SDS011;10708;50.824;4.408;2023-04-03T22:42:49;321.02;;;304.55;;
21099;SDS011;10708;50.824;4.408;2023-04-03T22:47:51;318.45;;;301.85;;
21099;SDS011;10708;50.824;4.408;2023-04-03T22:52:59;292.70;;;277.55;;
21099;SDS011;10708;50.824;4.408;2023-04-03T22:58:01;338.27;;;320.65;;
21099;SDS011;10708;50.824;4.408;2023-04-03T23:03:04;356.23;;;337.37;;
21099;SDS011;10708;50.824;4.408;2023-04-03T23:08:07;348.50;;;330.27;;
21099;SDS011;10708;50.824;4.408;2023-04-03T23:13:10;373.27;;;353.67;;
21099;SDS011;10708;50.824;4.408;2023-04-03T23:18:12;358.87;;;339.90;;
21099;SDS011;10708;50.824;4.408;2023-04-03T23:23:17;336.30;;;318.50;;
21099;SDS011;10708;50.824;4.408;2023-04-03T23:28:20;340.30;;;322.47;;
21099;SDS011;10708;50.824;4.408;2023-04-03T23:33:22;294.35;;;278.98;;
21099;SDS011;10708;50.824;4.408;2023-04-03T23:38:26;266.53;;;253.33;;
21099;SDS011;10708;50.824;4.408;2023-04-03T23:43:29;422.15;;;399.15;;
21099;SDS011;10708;50.824;4.408;2023-04-03T23:48:31;381.40;;;361.30;;
21099;SDS011;10708;50.824;4.408;2023-04-03T23:53:35;416.20;;;393.80;;
21099;SDS011;10708;50.824;4.408;2023-04-03T23:58:38;418.15;;;395.60;;
